Fecha, hora, temperatura, viento dirección y velocidad, humedad y presión.

  • 19-03-2019 23:00:00 | 2.00°C | Este |11.00 km/h | 98.00% | 0.00 hPa
  • 19-03-2019 22:00:00 | 1.70°C | Este |8.00 km/h | 100.00% | 0.00 hPa
  • 19-03-2019 21:00:00 | 1.30°C | Este |11.00 km/h | 100.00% | 0.00 hPa
  • 19-03-2019 20:00:00 | 1.40°C | Este |8.00 km/h | 97.00% | 0.00 hPa
  • 19-03-2019 19:00:00 | 2.20°C | Sur |6.00 km/h | 95.00% | 0.00 hPa
  • 19-03-2019 18:00:00 | 2.40°C | Sudoeste |5.00 km/h | 91.00% | 0.00 hPa
  • 19-03-2019 17:00:00 | 2.60°C | Sudeste |8.00 km/h | 92.00% | 0.00 hPa
  • 19-03-2019 16:00:00 | 2.70°C | Sur |5.00 km/h | 92.00% | 0.00 hPa
  • 19-03-2019 15:00:00 | 2.50°C | Noroeste |5.00 km/h | 95.00% | 0.00 hPa
  • 19-03-2019 14:00:00 | 2.00°C | Sudeste |6.00 km/h | 97.00% | 0.00 hPa
  • 19-03-2019 13:00:00 | 2.20°C | Este |9.00 km/h | 95.00% | 0.00 hPa
  • 19-03-2019 12:00:00 | 1.70°C | Sudeste |9.00 km/h | 99.00% | 0.00 hPa
  • 19-03-2019 11:00:00 | 1.70°C | Sur |8.00 km/h | 100.00% | 0.00 hPa
  • 19-03-2019 10:00:00 | 1.20°C | Sur |8.00 km/h | 100.00% | 0.00 hPa
  • 19-03-2019 09:00:00 | 1.10°C | Sur |9.00 km/h | 100.00% | 0.00 hPa
  • 19-03-2019 08:00:00 | 0.80°C | Sudoeste |6.00 km/h | 100.00% | 0.00 hPa
  • 19-03-2019 07:00:00 | 0.60°C | Sudoeste |4.00 km/h | 100.00% | 0.00 hPa
  • 19-03-2019 06:00:00 | 0.60°C | Noroeste |5.00 km/h | 100.00% | 0.00 hPa
  • 19-03-2019 05:00:00 | 0.50°C | Oeste |5.00 km/h | 100.00% | 0.00 hPa
  • 19-03-2019 04:00:00 | 0.20°C | Sudoeste |2.00 km/h | 100.00% | 0.00 hPa
  • 19-03-2019 03:00:00 | 0.30°C | Sudoeste |3.00 km/h | 100.00% | 0.00 hPa
  • 19-03-2019 02:00:00 | 0.30°C | Sudoeste |2.00 km/h | 100.00% | 0.00 hPa
  • 19-03-2019 01:00:00 | 0.60°C | Sudoeste |4.00 km/h | 100.00% | 0.00 hPa
  • 19-03-2019 00:00:00 | 1.50°C | Sudoeste |4.00 km/h | 99.00% | 0.00 hPa
    • diseño web asturias Información sobre el estado de las mareas, altura de la marejada, temperatura del agua y otros datos de Gijón en Asturias.

      Surf Gijón